Time;durP1;ratioP1;P1;durP2;ratioP2;P2;SDS_P1;SDS_P2;PMS_P1;PMS_P2;Temp;Humidity;BMP_temperature;BMP_pressure;BME280_temperature;BME280_humidity;BME280_pressure;Samples;Min_cycle;Max_cycle;Signal;HPM_P1;HPM_P2
2023/05/11 00:01:35;;;;;;;6.82;3.67;;;;;;;;;;5007154;28;20014;-65
2023/05/11 00:04:00;;;;;;;7.15;3.42;;;;;;;;;;5019590;28;20065;-65
2023/05/11 00:06:25;;;;;;;8.63;3.85;;;;;;;;;;5017249;28;20060;-65
2023/05/11 00:08:50;;;;;;;7.60;3.63;;;;;;;;;;5013119;28;20041;-64
2023/05/11 00:11:17;;;;;;;8.87;3.47;;;;;;;;;;5009524;28;20026;-65
2023/05/11 00:13:42;;;;;;;7.65;3.65;;;;;;;;;;5009762;28;20029;-65
2023/05/11 00:16:07;;;;;;;7.47;3.70;;;;;;;;;;5011677;28;20029;-65
2023/05/11 00:18:32;;;;;;;7.63;3.80;;;;;;;;;;5007810;28;20113;-65
2023/05/11 00:20:57;;;;;;;6.72;3.58;;;;;;;;;;5011253;28;20032;-65
2023/05/11 00:23:23;;;;;;;7.80;3.58;;;;;;;;;;5008584;28;20076;-65
2023/05/11 00:25:48;;;;;;;6.90;3.47;;;;;;;;;;5011179;28;20496;-66
2023/05/11 00:28:13;;;;;;;6.10;3.35;;;;;;;;;;5012413;28;20013;-65
2023/05/11 00:30:38;;;;;;;7.00;3.25;;;;;;;;;;5010613;28;20439;-65
2023/05/11 00:33:04;;;;;;;7.22;3.80;;;;;;;;;;5011337;28;20037;-65
2023/05/11 00:35:30;;;;;;;8.00;4.18;;;;;;;;;;5011010;28;20091;-65
2023/05/11 00:37:55;;;;;;;8.07;4.40;;;;;;;;;;5007606;28;20101;-66
2023/05/11 00:40:21;;;;;;;7.77;4.47;;;;;;;;;;5006570;28;20156;-64
2023/05/11 00:42:46;;;;;;;7.93;4.65;;;;;;;;;;5010252;28;20029;-66
2023/05/11 00:45:11;;;;;;;7.70;4.75;;;;;;;;;;5012381;28;20094;-65
2023/05/11 00:47:36;;;;;;;7.63;3.80;;;;;;;;;;5010361;28;20026;-66
2023/05/11 00:50:01;;;;;;;8.15;4.10;;;;;;;;;;5012527;28;20022;-66
2023/05/11 00:52:26;;;;;;;8.30;4.30;;;;;;;;;;5005433;28;20504;-66
2023/05/11 00:54:51;;;;;;;7.67;4.50;;;;;;;;;;5009359;28;20464;-66
2023/05/11 00:57:17;;;;;;;7.05;4.00;;;;;;;;;;5011253;28;20033;-66
2023/05/11 00:59:42;;;;;;;8.33;3.93;;;;;;;;;;5009352;28;20036;-66
2023/05/11 01:02:07;;;;;;;8.02;4.38;;;;;;;;;;5008266;28;20022;-67
2023/05/11 01:04:32;;;;;;;6.55;4.00;;;;;;;;;;5011436;28;20026;-65
2023/05/11 01:07:13;;;;;;;6.63;3.63;;;;;;;;;;5008648;28;20132;-65
2023/05/11 01:09:58;;;;;;;6.95;3.80;;;;;;;;;;5009504;28;20365;-65
2023/05/11 01:12:27;;;;;;;7.72;3.80;;;;;;;;;;5006229;28;20029;-65
2023/05/11 01:14:55;;;;;;;7.75;3.90;;;;;;;;;;5008754;28;20029;-65
2023/05/11 01:17:33;;;;;;;7.60;3.95;;;;;;;;;;5011989;28;20030;-66
2023/05/11 01:20:03;;;;;;;7.25;3.50;;;;;;;;;;5010345;28;20018;-64
2023/05/11 01:22:47;;;;;;;7.28;3.67;;;;;;;;;;5009979;28;20036;-65
2023/05/11 01:25:20;;;;;;;6.90;4.05;;;;;;;;;;5004750;28;20482;-66
2023/05/11 01:28:05;;;;;;;7.25;4.25;;;;;;;;;;5006913;28;20033;-65
2023/05/11 01:30:33;;;;;;;6.82;3.72;;;;;;;;;;5006828;28;20037;-65
2023/05/11 01:33:01;;;;;;;7.10;3.80;;;;;;;;;;5009820;28;20034;-65
2023/05/11 01:35:27;;;;;;;8.52;4.30;;;;;;;;;;5008888;28;20088;-66
2023/05/11 01:37:55;;;;;;;8.73;4.20;;;;;;;;;;5007105;28;20026;-65
2023/05/11 01:40:22;;;;;;;7.85;3.67;;;;;;;;;;5005255;28;20026;-65
2023/05/11 01:42:49;;;;;;;6.55;3.60;;;;;;;;;;5008860;28;20018;-65
2023/05/11 01:45:14;;;;;;;;;;;;;;;;;;5009488;28;20056;-65
2023/05/11 01:47:40;;;;;;;6.57;3.33;;;;;;;;;;5011474;28;19948;-65
2023/05/11 01:50:06;;;;;;;11.98;4.45;;;;;;;;;;5008858;28;20145;-65
2023/05/11 01:52:32;;;;;;;7.63;4.07;;;;;;;;;;5008722;28;20397;-66
2023/05/11 01:54:58;;;;;;;9.70;4.45;;;;;;;;;;5009753;28;20089;-65
2023/05/11 01:57:23;;;;;;;8.45;3.97;;;;;;;;;;5009094;28;20109;-65
2023/05/11 01:59:49;;;;;;;8.80;4.60;;;;;;;;;;5007137;28;20470;-65
2023/05/11 02:02:17;;;;;;;11.35;4.88;;;;;;;;;;5006317;28;20116;-66
2023/05/11 02:04:42;;;;;;;9.15;4.78;;;;;;;;;;5009550;28;20057;-66
2023/05/11 02:07:09;;;;;;;7.32;4.22;;;;;;;;;;5009351;28;20048;-65
2023/05/11 02:09:35;;;;;;;6.63;3.88;;;;;;;;;;5008453;28;20026;-64
2023/05/11 02:12:01;;;;;;;8.40;4.20;;;;;;;;;;5006314;28;20038;-65
2023/05/11 02:14:28;;;;;;;9.32;4.80;;;;;;;;;;5011175;28;20076;-66
2023/05/11 02:16:54;;;;;;;9.77;4.80;;;;;;;;;;5008979;28;20026;-65
2023/05/11 02:19:19;;;;;;;;;;;;;;;;;;5009681;28;20033;-66
2023/05/11 02:21:45;;;;;;;8.68;4.28;;;;;;;;;;5004549;28;19909;-64
2023/05/11 02:24:10;;;;;;;8.73;4.93;;;;;;;;;;5005260;28;20083;-65
2023/05/11 02:26:35;;;;;;;7.93;4.30;;;;;;;;;;5009169;28;20121;-64
2023/05/11 02:29:00;;;;;;;8.60;4.47;;;;;;;;;;5008409;28;20042;-65
2023/05/11 02:31:27;;;;;;;7.87;4.43;;;;;;;;;;5008574;28;20461;-64
2023/05/11 02:33:54;;;;;;;8.05;4.55;;;;;;;;;;5008391;28;20034;-65
2023/05/11 02:36:21;;;;;;;8.48;4.40;;;;;;;;;;5007932;28;20026;-64
2023/05/11 02:38:46;;;;;;;6.82;3.92;;;;;;;;;;5004029;28;20025;-65
2023/05/11 02:41:14;;;;;;;8.00;4.30;;;;;;;;;;5009131;28;20018;-65
2023/05/11 02:43:48;;;;;;;9.27;4.43;;;;;;;;;;5008718;28;20400;-65
2023/05/11 02:46:15;;;;;;;9.55;4.60;;;;;;;;;;5010038;28;20030;-66
2023/05/11 02:48:42;;;;;;;8.68;4.68;;;;;;;;;;5008872;28;20030;-63
2023/05/11 02:51:08;;;;;;;6.88;4.13;;;;;;;;;;5017644;28;20022;-66
2023/05/11 02:53:33;;;;;;;;;;;;;;;;;;5017068;28;20091;-66
2023/05/11 02:55:59;;;;;;;8.70;3.88;;;;;;;;;;5008785;28;19914;-67
2023/05/11 02:58:24;;;;;;;7.22;4.43;;;;;;;;;;5006811;28;20033;-65
2023/05/11 03:00:50;;;;;;;7.53;3.57;;;;;;;;;;5004086;28;20049;-65
2023/05/11 03:03:15;;;;;;;9.07;4.68;;;;;;;;;;5006969;28;20025;-65
2023/05/11 03:05:40;;;;;;;7.93;4.30;;;;;;;;;;5008442;28;20079;-65
2023/05/11 03:08:06;;;;;;;7.00;3.75;;;;;;;;;;5007848;28;20475;-64
2023/05/11 03:10:31;;;;;;;7.13;3.83;;;;;;;;;;5007756;28;20517;-65
2023/05/11 03:12:56;;;;;;;7.97;4.20;;;;;;;;;;5009720;28;20028;-65
2023/05/11 03:15:21;;;;;;;7.95;3.97;;;;;;;;;;5006108;28;20041;-66
2023/05/11 03:17:48;;;;;;;8.70;4.77;;;;;;;;;;5009014;28;20022;-66
2023/05/11 03:20:14;;;;;;;9.43;4.70;;;;;;;;;;5004906;28;20551;-65
2023/05/11 03:22:40;;;;;;;8.95;4.90;;;;;;;;;;5006581;28;20072;-66
2023/05/11 03:25:06;;;;;;;12.70;4.95;;;;;;;;;;5006901;28;20026;-66
2023/05/11 03:27:32;;;;;;;7.57;4.30;;;;;;;;;;5006343;28;20045;-66
2023/05/11 03:29:58;;;;;;;8.15;4.30;;;;;;;;;;5008544;28;20112;-67
2023/05/11 03:32:23;;;;;;;9.82;4.45;;;;;;;;;;5008322;28;20511;-66
2023/05/11 03:34:48;;;;;;;7.20;4.20;;;;;;;;;;5013329;28;20018;-65
2023/05/11 03:37:16;;;;;;;6.97;4.10;;;;;;;;;;5011679;28;20054;-66
2023/05/11 03:39:42;;;;;;;7.10;4.03;;;;;;;;;;5010553;28;20030;-67
2023/05/11 03:42:08;;;;;;;7.88;3.92;;;;;;;;;;5008774;28;20068;-66
2023/05/11 03:44:33;;;;;;;7.53;3.58;;;;;;;;;;5009051;28;20026;-66
2023/05/11 03:47:00;;;;;;;6.38;3.70;;;;;;;;;;5012705;28;20026;-66
2023/05/11 03:49:25;;;;;;;7.15;3.25;;;;;;;;;;5009254;28;20026;-66
2023/05/11 03:51:52;;;;;;;7.25;3.92;;;;;;;;;;5007447;28;20029;-65
2023/05/11 03:54:17;;;;;;;6.88;3.30;;;;;;;;;;5012284;28;20029;-66
2023/05/11 03:56:42;;;;;;;6.68;3.28;;;;;;;;;;5011917;28;20109;-67
2023/05/11 03:59:08;;;;;;;7.47;3.78;;;;;;;;;;5010556;28;20026;-67
2023/05/11 04:01:33;;;;;;;8.93;3.63;;;;;;;;;;5006686;28;20034;-66
2023/05/11 04:03:59;;;;;;;9.13;3.67;;;;;;;;;;5008612;28;20025;-65
2023/05/11 04:06:24;;;;;;;5.57;3.37;;;;;;;;;;5010805;28;20029;-66
2023/05/11 04:08:49;;;;;;;6.25;3.50;;;;;;;;;;5009796;28;20017;-64
2023/05/11 04:11:14;;;;;;;7.87;4.03;;;;;;;;;;5005809;28;20017;-65
2023/05/11 04:13:40;;;;;;;6.45;3.22;;;;;;;;;;5005692;28;20025;-66
2023/05/11 04:16:05;;;;;;;6.63;3.37;;;;;;;;;;5009748;28;20025;-64
2023/05/11 04:18:30;;;;;;;6.43;3.70;;;;;;;;;;5011303;28;20072;-66
2023/05/11 04:20:55;;;;;;;8.20;3.70;;;;;;;;;;5006404;28;20030;-65
2023/05/11 04:23:21;;;;;;;6.07;3.40;;;;;;;;;;5005608;28;20036;-66
2023/05/11 04:25:46;;;;;;;6.13;3.10;;;;;;;;;;5005445;28;20096;-66
2023/05/11 04:28:11;;;;;;;8.45;3.53;;;;;;;;;;5009353;28;20109;-67
2023/05/11 04:30:36;;;;;;;8.07;3.15;;;;;;;;;;5007142;28;20041;-66
2023/05/11 04:33:02;;;;;;;5.33;3.20;;;;;;;;;;5005095;28;20080;-65
2023/05/11 04:35:27;;;;;;;5.72;3.28;;;;;;;;;;5004555;28;20026;-67
2023/05/11 04:37:52;;;;;;;5.90;3.13;;;;;;;;;;5001215;28;20032;-67
2023/05/11 04:40:17;;;;;;;6.73;3.40;;;;;;;;;;5004672;28;20409;-65
2023/05/11 04:42:42;;;;;;;7.73;3.87;;;;;;;;;;5002657;28;20034;-66
2023/05/11 04:45:08;;;;;;;6.50;3.30;;;;;;;;;;4999614;28;20521;-66
2023/05/11 04:47:33;;;;;;;6.10;3.22;;;;;;;;;;5000015;28;20041;-66
2023/05/11 04:49:58;;;;;;;5.50;3.17;;;;;;;;;;5002669;28;20108;-67
2023/05/11 04:52:23;;;;;;;8.30;3.42;;;;;;;;;;5005330;28;20030;-65
2023/05/11 04:54:49;;;;;;;5.30;2.90;;;;;;;;;;5000824;28;20050;-66
2023/05/11 04:57:14;;;;;;;6.07;2.90;;;;;;;;;;4997555;28;20096;-64
2023/05/11 04:59:39;;;;;;;6.13;3.03;;;;;;;;;;5003150;28;20033;-66
2023/05/11 05:02:04;;;;;;;7.80;3.00;;;;;;;;;;5005359;28;20052;-64
2023/05/11 05:04:30;;;;;;;5.57;3.17;;;;;;;;;;5004394;28;20036;-66
2023/05/11 05:06:55;;;;;;;7.23;3.47;;;;;;;;;;5003833;28;20034;-66
2023/05/11 05:09:20;;;;;;;5.97;2.93;;;;;;;;;;5003948;28;20025;-65
2023/05/11 05:11:45;;;;;;;5.93;3.33;;;;;;;;;;5001160;28;20053;-64
2023/05/11 05:14:10;;;;;;;7.27;2.97;;;;;;;;;;5001337;28;20024;-64
2023/05/11 05:16:35;;;;;;;6.40;3.10;;;;;;;;;;5003623;28;20563;-65
2023/05/11 05:19:01;;;;;;;6.60;3.27;;;;;;;;;;5008237;28;20049;-63
2023/05/11 05:21:26;;;;;;;8.70;3.40;;;;;;;;;;5002873;28;20026;-66
2023/05/11 05:23:51;;;;;;;8.05;3.50;;;;;;;;;;5007365;28;20030;-65
2023/05/11 05:26:16;;;;;;;6.38;3.10;;;;;;;;;;5012057;28;20026;-67
2023/05/11 05:28:41;;;;;;;6.70;3.30;;;;;;;;;;5014079;28;20060;-67
2023/05/11 05:31:06;;;;;;;9.15;3.03;;;;;;;;;;5012259;28;20026;-66
2023/05/11 05:33:31;;;;;;;8.77;3.57;;;;;;;;;;5007243;28;20445;-65
2023/05/11 05:35:57;;;;;;;6.17;3.40;;;;;;;;;;5007184;28;20049;-64
2023/05/11 05:38:22;;;;;;;8.17;2.90;;;;;;;;;;5012176;28;20101;-65
2023/05/11 05:40:47;;;;;;;6.00;2.97;;;;;;;;;;5013242;28;20466;-64
2023/05/11 05:43:12;;;;;;;6.33;2.80;;;;;;;;;;5008711;28;20791;-65
2023/05/11 05:45:37;;;;;;;6.28;3.15;;;;;;;;;;5011614;28;20539;-65
2023/05/11 05:48:04;;;;;;;8.57;2.93;;;;;;;;;;5009376;28;20076;-65
2023/05/11 05:50:29;;;;;;;13.13;3.13;;;;;;;;;;5011327;28;20025;-65
2023/05/11 05:52:55;;;;;;;8.30;2.80;;;;;;;;;;5009401;28;20037;-70
2023/05/11 05:55:21;;;;;;;5.00;2.57;;;;;;;;;;5009803;28;20536;-65
2023/05/11 05:57:46;;;;;;;8.93;2.67;;;;;;;;;;5009475;28;20057;-66
2023/05/11 06:00:12;;;;;;;5.60;2.50;;;;;;;;;;5003609;28;20024;-66
2023/05/11 06:02:37;;;;;;;5.95;2.50;;;;;;;;;;5007291;28;20036;-65
2023/05/11 06:05:02;;;;;;;5.70;2.63;;;;;;;;;;5002471;28;20742;-66
2023/05/11 06:07:27;;;;;;;6.47;2.70;;;;;;;;;;5009531;28;20022;-65
2023/05/11 06:09:52;;;;;;;5.80;2.65;;;;;;;;;;5011440;28;20014;-66
2023/05/11 06:12:17;;;;;;;5.88;2.15;;;;;;;;;;5011298;28;20367;-65
2023/05/11 06:14:43;;;;;;;5.90;2.25;;;;;;;;;;5001888;28;20030;-65
2023/05/11 06:17:08;;;;;;;5.82;2.50;;;;;;;;;;5006478;28;20076;-65
2023/05/11 06:19:33;;;;;;;6.07;2.47;;;;;;;;;;5012429;28;20018;-65
2023/05/11 06:21:58;;;;;;;5.32;2.35;;;;;;;;;;5010288;28;20033;-64
2023/05/11 06:24:23;;;;;;;6.97;2.30;;;;;;;;;;5003926;28;20033;-65
2023/05/11 06:26:48;;;;;;;5.82;2.20;;;;;;;;;;5008135;28;21739;-64
2023/05/11 06:29:13;;;;;;;5.43;2.55;;;;;;;;;;5001017;28;20108;-63
2023/05/11 06:31:39;;;;;;;7.37;2.37;;;;;;;;;;5009573;28;20084;-64
2023/05/11 06:34:04;;;;;;;7.25;2.50;;;;;;;;;;5009218;28;20497;-65
2023/05/11 06:36:31;;;;;;;6.00;2.47;;;;;;;;;;5010256;28;20022;-65
2023/05/11 06:38:56;;;;;;;6.32;2.50;;;;;;;;;;5010651;28;20088;-64
2023/05/11 06:41:21;;;;;;;4.70;2.20;;;;;;;;;;5004582;28;20030;-65
2023/05/11 06:43:46;;;;;;;5.80;2.33;;;;;;;;;;5007794;28;20117;-64
2023/05/11 06:46:15;;;;;;;5.47;2.45;;;;;;;;;;5011323;28;21043;-65
2023/05/11 06:48:40;;;;;;;5.82;2.30;;;;;;;;;;5011379;28;20014;-64
2023/05/11 06:51:08;;;;;;;6.13;2.60;;;;;;;;;;5004363;28;20084;-66
2023/05/11 06:53:33;;;;;;;5.35;2.50;;;;;;;;;;5007005;28;20026;-65
2023/05/11 06:55:58;;;;;;;4.53;2.30;;;;;;;;;;5008562;28;20393;-65
2023/05/11 06:58:23;;;;;;;5.33;2.40;;;;;;;;;;5011663;28;20018;-65
2023/05/11 07:00:48;;;;;;;4.55;2.05;;;;;;;;;;5012301;28;20050;-64
2023/05/11 07:03:14;;;;;;;4.70;2.00;;;;;;;;;;5010788;28;20033;-64
2023/05/11 07:05:39;;;;;;;5.85;2.40;;;;;;;;;;5007539;28;20025;-65
2023/05/11 07:08:05;;;;;;;6.07;2.30;;;;;;;;;;5014254;28;20466;-63
2023/05/11 07:10:30;;;;;;;4.53;2.17;;;;;;;;;;5017123;28;20060;-67
2023/05/11 07:12:55;;;;;;;5.55;2.28;;;;;;;;;;5015115;28;20017;-67
2023/05/11 07:15:21;;;;;;;5.20;2.10;;;;;;;;;;5017261;28;20600;-66
2023/05/11 07:17:46;;;;;;;7.10;2.10;;;;;;;;;;5017197;28;20034;-67
2023/05/11 07:20:11;;;;;;;7.10;2.13;;;;;;;;;;5017265;28;20020;-66
2023/05/11 07:22:37;;;;;;;5.72;2.28;;;;;;;;;;5014541;28;20081;-65
2023/05/11 07:25:03;;;;;;;5.15;2.40;;;;;;;;;;5015796;28;20072;-65
2023/05/11 07:27:30;;;;;;;;;;;;;;;;;;5016632;28;20116;-65
2023/05/11 07:29:55;;;;;;;5.80;2.10;;;;;;;;;;5014928;28;20000;-65
2023/05/11 07:32:20;;;;;;;4.83;2.00;;;;;;;;;;5011728;28;20403;-63
2023/05/11 07:34:45;;;;;;;5.90;2.30;;;;;;;;;;5011348;28;21010;-66
2023/05/11 07:37:11;;;;;;;5.93;2.10;;;;;;;;;;5017246;28;20029;-66
2023/05/11 07:39:36;;;;;;;5.75;2.00;;;;;;;;;;5017083;28;20025;-65
2023/05/11 07:42:01;;;;;;;5.72;2.50;;;;;;;;;;5016690;28;20093;-65
2023/05/11 07:44:26;;;;;;;5.88;2.13;;;;;;;;;;5014049;28;20037;-65
2023/05/11 07:46:51;;;;;;;5.75;2.30;;;;;;;;;;5017202;28;20033;-65
2023/05/11 07:49:16;;;;;;;7.10;2.10;;;;;;;;;;5013635;28;20064;-64
2023/05/11 07:51:41;;;;;;;4.85;2.00;;;;;;;;;;5016379;28;20026;-63
2023/05/11 07:54:07;;;;;;;6.13;2.20;;;;;;;;;;5016482;28;20097;-65
2023/05/11 07:56:32;;;;;;;5.40;2.15;;;;;;;;;;5017273;28;20662;-65
2023/05/11 07:58:57;;;;;;;6.47;2.30;;;;;;;;;;5015420;28;20022;-65
2023/05/11 08:01:22;;;;;;;5.20;2.15;;;;;;;;;;5016225;28;20042;-65
2023/05/11 08:03:47;;;;;;;5.18;2.17;;;;;;;;;;5015990;28;20508;-65
2023/05/11 08:06:13;;;;;;;5.20;2.15;;;;;;;;;;5016894;28;20121;-65
2023/05/11 08:08:38;;;;;;;5.53;1.97;;;;;;;;;;5016610;28;20095;-64
2023/05/11 08:11:04;;;;;;;4.20;2.00;;;;;;;;;;5015648;28;20469;-64
2023/05/11 08:13:29;;;;;;;4.90;2.10;;;;;;;;;;5016137;28;20037;-66
2023/05/11 08:15:55;;;;;;;4.03;1.90;;;;;;;;;;5016602;28;20028;-64
2023/05/11 08:18:20;;;;;;;6.30;2.47;;;;;;;;;;5015742;28;20032;-65
2023/05/11 08:20:45;;;;;;;5.67;2.50;;;;;;;;;;5010822;28;20029;-65
2023/05/11 08:23:15;;;;;;;6.63;2.47;;;;;;;;;;5012660;28;20084;-65
2023/05/11 08:25:41;;;;;;;11.65;2.50;;;;;;;;;;5013929;28;20095;-68
2023/05/11 08:28:06;;;;;;;4.80;2.20;;;;;;;;;;5013154;28;20061;-66
2023/05/11 08:30:31;;;;;;;4.73;2.00;;;;;;;;;;5016721;28;20022;-65
2023/05/11 08:32:56;;;;;;;5.63;2.13;;;;;;;;;;5013458;28;20378;-66
2023/05/11 08:35:23;;;;;;;5.25;2.22;;;;;;;;;;5013405;28;20452;-64
2023/05/11 08:37:48;;;;;;;5.95;2.50;;;;;;;;;;5009545;28;20036;-65
2023/05/11 08:40:13;;;;;;;6.57;2.43;;;;;;;;;;5012800;28;20101;-64
2023/05/11 08:42:39;;;;;;;5.75;2.38;;;;;;;;;;5013095;28;20029;-64
2023/05/11 08:45:05;;;;;;;4.85;2.10;;;;;;;;;;5011830;28;21274;-66
2023/05/11 08:47:30;;;;;;;6.57;2.17;;;;;;;;;;5013559;28;20079;-66
2023/05/11 08:49:57;;;;;;;5.03;1.95;;;;;;;;;;5013448;28;20045;-67
2023/05/11 08:52:22;;;;;;;5.82;2.00;;;;;;;;;;5012839;28;20022;-63
2023/05/11 08:54:47;;;;;;;5.38;2.03;;;;;;;;;;5011351;28;20026;-65
2023/05/11 08:57:13;;;;;;;6.00;1.93;;;;;;;;;;5012979;28;20481;-64
2023/05/11 08:59:39;;;;;;;5.78;2.10;;;;;;;;;;5012880;28;20032;-66
2023/05/11 09:02:05;;;;;;;5.28;2.28;;;;;;;;;;5012437;28;20050;-66
2023/05/11 09:04:31;;;;;;;5.53;2.05;;;;;;;;;;5011090;28;20104;-66
2023/05/11 09:06:56;;;;;;;4.50;2.10;;;;;;;;;;5012182;28;20026;-66
2023/05/11 09:09:21;;;;;;;4.72;2.00;;;;;;;;;;5012930;28;20026;-66
2023/05/11 09:11:47;;;;;;;4.60;2.25;;;;;;;;;;5010534;28;20018;-65
2023/05/11 09:14:12;;;;;;;5.60;2.33;;;;;;;;;;5011237;28;20032;-64
2023/05/11 09:16:37;;;;;;;4.77;2.23;;;;;;;;;;5011444;28;20108;-64
2023/05/11 09:19:02;;;;;;;4.57;2.00;;;;;;;;;;5010671;28;20036;-64
2023/05/11 09:21:28;;;;;;;7.45;2.17;;;;;;;;;;5011054;28;20170;-65
2023/05/11 09:23:54;;;;;;;5.30;2.20;;;;;;;;;;5010403;28;20033;-66
2023/05/11 09:26:20;;;;;;;5.13;2.05;;;;;;;;;;5012030;28;20374;-66
2023/05/11 09:28:54;;;;;;;6.25;1.90;;;;;;;;;;5012212;28;20503;-66
2023/05/11 09:31:39;;;;;;;4.95;1.60;;;;;;;;;;5011639;28;20113;-66
2023/05/11 09:34:14;;;;;;;5.47;1.80;;;;;;;;;;5010326;28;20021;-65
2023/05/11 09:36:39;;;;;;;6.50;1.90;;;;;;;;;;5011529;28;20491;-66
2023/05/11 09:39:05;;;;;;;4.45;1.95;;;;;;;;;;5012186;28;20024;-65
2023/05/11 09:41:30;;;;;;;4.97;1.80;;;;;;;;;;5006588;28;20013;-65
2023/05/11 09:44:09;;;;;;;5.32;2.00;;;;;;;;;;5010145;28;20026;-65
2023/05/11 09:46:35;;;;;;;4.63;1.92;;;;;;;;;;5012395;28;20072;-65
2023/05/11 09:49:01;;;;;;;7.55;2.33;;;;;;;;;;5012711;28;20072;-64
2023/05/11 09:51:30;;;;;;;4.83;1.90;;;;;;;;;;5010706;28;20033;-65
2023/05/11 09:53:56;;;;;;;4.57;1.90;;;;;;;;;;5011978;28;20126;-66
2023/05/11 09:56:21;;;;;;;4.65;1.80;;;;;;;;;;5010963;28;20045;-64
2023/05/11 09:58:51;;;;;;;7.65;2.20;;;;;;;;;;5010453;28;20022;-65
2023/05/11 10:01:18;;;;;;;4.93;1.83;;;;;;;;;;5008532;28;20033;-65
2023/05/11 10:03:47;;;;;;;7.25;1.80;;;;;;;;;;5011593;28;20470;-64
2023/05/11 10:06:12;;;;;;;5.35;1.77;;;;;;;;;;5005291;28;20047;-65
2023/05/11 10:08:37;;;;;;;6.30;1.67;;;;;;;;;;5009630;28;20018;-65
2023/05/11 10:11:04;;;;;;;4.97;1.60;;;;;;;;;;5007849;28;20075;-65
2023/05/11 10:13:29;;;;;;;;;;;;;;;;;;5011864;28;20111;-65
2023/05/11 10:15:56;;;;;;;6.07;1.88;;;;;;;;;;5011451;28;19909;-65
2023/05/11 10:18:21;;;;;;;4.75;1.70;;;;;;;;;;5013039;28;20021;-65
2023/05/11 10:20:46;;;;;;;5.50;1.48;;;;;;;;;;5007750;28;20022;-66
2023/05/11 10:23:12;;;;;;;6.25;1.40;;;;;;;;;;5009391;28;20037;-65
2023/05/11 10:25:38;;;;;;;5.00;1.40;;;;;;;;;;5010206;28;20540;-65
2023/05/11 10:28:03;;;;;;;5.20;1.63;;;;;;;;;;5008916;28;20018;-65
2023/05/11 10:30:30;;;;;;;3.80;1.55;;;;;;;;;;5010838;28;20076;-65
2023/05/11 10:32:55;;;;;;;;;;;;;;;;;;5009514;28;20080;-65
2023/05/11 10:35:20;;;;;;;5.60;1.60;;;;;;;;;;5009600;28;19909;-65
2023/05/11 10:37:46;;;;;;;6.28;1.75;;;;;;;;;;5009778;28;20026;-64
2023/05/11 10:40:12;;;;;;;4.80;1.60;;;;;;;;;;5010972;28;20017;-66
2023/05/11 10:42:46;;;;;;;4.25;1.50;;;;;;;;;;5010574;28;20022;-64
2023/05/11 10:45:14;;;;;;;6.38;1.50;;;;;;;;;;5004247;28;20033;-66
2023/05/11 10:47:49;;;;;;;3.50;1.27;;;;;;;;;;5010131;28;20030;-65
2023/05/11 10:50:33;;;;;;;5.50;1.60;;;;;;;;;;5010810;28;20432;-66
2023/05/11 10:53:07;;;;;;;4.53;1.50;;;;;;;;;;5010693;28;20377;-66
2023/05/11 10:55:51;;;;;;;5.93;1.70;;;;;;;;;;5010112;28;20022;-66
2023/05/11 10:58:42;;;;;;;5.95;1.63;;;;;;;;;;5009508;28;20057;-65
2023/05/11 11:01:19;;;;;;;6.38;1.83;;;;;;;;;;5009108;28;20437;-66
2023/05/11 11:04:04;;;;;;;3.95;1.42;;;;;;;;;;5010734;28;20497;-66
2023/05/11 11:06:29;;;;;;;6.18;1.65;;;;;;;;;;5009759;28;20049;-65
2023/05/11 11:08:56;;;;;;;5.28;1.60;;;;;;;;;;5011062;28;20474;-67
2023/05/11 11:11:29;;;;;;;6.57;1.63;;;;;;;;;;5010034;28;20025;-63
2023/05/11 11:14:00;;;;;;;5.40;1.60;;;;;;;;;;5010685;28;20018;-64
2023/05/11 11:16:26;;;;;;;5.18;1.60;;;;;;;;;;5009399;28;20029;-66
2023/05/11 11:19:11;;;;;;;3.83;1.50;;;;;;;;;;5011420;28;20034;-67
2023/05/11 11:21:41;;;;;;;3.92;1.50;;;;;;;;;;5011214;28;20018;-66
2023/05/11 11:24:06;;;;;;;4.05;1.77;;;;;;;;;;5012623;28;20497;-67
2023/05/11 11:26:50;;;;;;;7.13;1.80;;;;;;;;;;5010635;28;20080;-66
2023/05/11 11:29:16;;;;;;;3.88;1.60;;;;;;;;;;5003150;28;20073;-66
2023/05/11 11:31:41;;;;;;;9.98;1.75;;;;;;;;;;5010352;28;20022;-66
2023/05/11 11:34:25;;;;;;;6.85;2.00;;;;;;;;;;5008817;28;20026;-66
2023/05/11 11:36:53;;;;;;;6.03;1.60;;;;;;;;;;5008048;28;20108;-66
2023/05/11 11:39:18;;;;;;;5.35;2.08;;;;;;;;;;5009737;28;20026;-65
2023/05/11 11:41:43;;;;;;;4.03;1.50;;;;;;;;;;5009204;28;20393;-65
2023/05/11 11:44:19;;;;;;;4.35;1.42;;;;;;;;;;5010952;28;20026;-66
2023/05/11 11:46:44;;;;;;;4.68;1.70;;;;;;;;;;5009482;28;20033;-66
2023/05/11 11:49:09;;;;;;;4.18;1.50;;;;;;;;;;5009846;28;20407;-66
2023/05/11 11:51:39;;;;;;;7.30;1.87;;;;;;;;;;5010121;28;20496;-66
2023/05/11 11:54:04;;;;;;;4.95;1.60;;;;;;;;;;5010904;28;20018;-66
2023/05/11 11:56:29;;;;;;;3.50;1.58;;;;;;;;;;5012809;28;20088;-65
2023/05/11 11:58:54;;;;;;;5.13;1.83;;;;;;;;;;5013527;28;20017;-66
2023/05/11 12:01:21;;;;;;;5.82;1.67;;;;;;;;;;5013716;28;20022;-65
2023/05/11 12:03:51;;;;;;;4.97;1.63;;;;;;;;;;5013835;28;20065;-65
2023/05/11 12:06:19;;;;;;;3.40;1.50;;;;;;;;;;5013017;28;20025;-64
2023/05/11 12:08:44;;;;;;;4.95;1.48;;;;;;;;;;5011735;28;20129;-64
2023/05/11 12:11:10;;;;;;;5.67;1.83;;;;;;;;;;5012609;28;20681;-64
2023/05/11 12:13:35;;;;;;;4.70;1.50;;;;;;;;;;5012417;28;20029;-64
2023/05/11 12:16:16;;;;;;;5.28;1.80;;;;;;;;;;5013654;28;20127;-64
2023/05/11 12:18:42;;;;;;;5.30;1.90;;;;;;;;;;5013820;28;20524;-63
2023/05/11 12:21:19;;;;;;;8.80;1.83;;;;;;;;;;5007083;28;20488;-66
2023/05/11 12:23:52;;;;;;;4.70;1.70;;;;;;;;;;5014076;28;20030;-66
2023/05/11 12:26:18;;;;;;;3.40;1.50;;;;;;;;;;5012077;28;20116;-66
2023/05/11 12:28:48;;;;;;;5.38;1.70;;;;;;;;;;5008652;28;20026;-64
2023/05/11 12:31:13;;;;;;;6.05;1.60;;;;;;;;;;5008285;28;20026;-66
2023/05/11 12:33:48;;;;;;;11.60;1.60;;;;;;;;;;5008890;28;20036;-65
2023/05/11 12:36:15;;;;;;;3.30;1.40;;;;;;;;;;5010576;28;20100;-65
2023/05/11 12:38:47;;;;;;;4.53;1.55;;;;;;;;;;5013425;28;20026;-66
2023/05/11 12:41:20;;;;;;;3.38;1.42;;;;;;;;;;5012564;28;20017;-64
2023/05/11 12:43:45;;;;;;;6.13;1.80;;;;;;;;;;5011663;28;20061;-64
2023/05/11 12:46:11;;;;;;;3.50;1.60;;;;;;;;;;5013075;28;20433;-66
2023/05/11 12:48:36;;;;;;;5.10;1.43;;;;;;;;;;5013145;28;20102;-65
2023/05/11 12:51:01;;;;;;;5.20;1.42;;;;;;;;;;5007324;28;20037;-66
2023/05/11 12:53:33;;;;;;;4.30;1.50;;;;;;;;;;5010366;28;20030;-65
2023/05/11 12:55:58;;;;;;;6.10;1.70;;;;;;;;;;5012848;28;20041;-65
2023/05/11 12:58:23;;;;;;;6.15;1.60;;;;;;;;;;5013415;28;20033;-66
2023/05/11 13:00:51;;;;;;;4.82;1.60;;;;;;;;;;5011779;28;20052;-66
2023/05/11 13:03:20;;;;;;;4.65;1.70;;;;;;;;;;5011916;28;20025;-65
2023/05/11 13:05:45;;;;;;;8.90;1.80;;;;;;;;;;5012156;28;20101;-66
2023/05/11 13:08:13;;;;;;;3.37;1.30;;;;;;;;;;5004114;28;20644;-64
2023/05/11 13:10:38;;;;;;;5.05;1.75;;;;;;;;;;5012985;28;20033;-66
2023/05/11 13:13:03;;;;;;;4.68;1.80;;;;;;;;;;5011426;28;20018;-67
2023/05/11 13:15:29;;;;;;;3.80;1.53;;;;;;;;;;5012624;28;20548;-66
2023/05/11 13:17:54;;;;;;;;;;;;;;;;;;5012803;28;20022;-66
2023/05/11 13:20:21;;;;;;;4.27;1.60;;;;;;;;;;5010761;28;19915;-66
2023/05/11 13:22:47;;;;;;;5.20;1.50;;;;;;;;;;5011167;28;20051;-64
2023/05/11 13:25:17;;;;;;;4.85;1.70;;;;;;;;;;5004933;28;20025;-66
2023/05/11 13:27:42;;;;;;;5.38;1.55;;;;;;;;;;5012534;28;20076;-66
2023/05/11 13:30:07;;;;;;;7.45;1.67;;;;;;;;;;5011290;28;20080;-65
2023/05/11 13:32:32;;;;;;;5.57;1.65;;;;;;;;;;5011380;28;20033;-64
2023/05/11 13:35:04;;;;;;;3.63;1.50;;;;;;;;;;5009554;28;20498;-66
2023/05/11 13:37:29;;;;;;;4.25;1.63;;;;;;;;;;5011914;28;20046;-66
2023/05/11 13:39:54;;;;;;;9.50;1.73;;;;;;;;;;5011462;28;20096;-66
2023/05/11 13:42:20;;;;;;;7.90;2.23;;;;;;;;;;5007501;28;20026;-66
2023/05/11 13:44:45;;;;;;;3.97;1.52;;;;;;;;;;5011853;28;20805;-66
2023/05/11 13:47:10;;;;;;;4.57;1.50;;;;;;;;;;5010747;28;20076;-66
2023/05/11 13:49:35;;;;;;;6.27;1.53;;;;;;;;;;5011682;28;20018;-64
2023/05/11 13:52:00;;;;;;;6.32;1.50;;;;;;;;;;5009818;28;20021;-66
2023/05/11 13:54:27;;;;;;;4.37;1.43;;;;;;;;;;5014189;28;20026;-65
2023/05/11 13:56:52;;;;;;;4.85;1.58;;;;;;;;;;5003259;28;20515;-66
2023/05/11 13:59:17;;;;;;;4.73;1.70;;;;;;;;;;5011753;28;20050;-66
2023/05/11 14:01:43;;;;;;;5.30;1.88;;;;;;;;;;5010104;28;20049;-67
2023/05/11 14:04:08;;;;;;;3.83;1.53;;;;;;;;;;5013056;28;20030;-65
2023/05/11 14:06:34;;;;;;;3.55;1.45;;;;;;;;;;5010333;28;20030;-64
2023/05/11 14:08:59;;;;;;;3.95;1.63;;;;;;;;;;5012879;28;20373;-66
2023/05/11 14:11:24;;;;;;;4.37;1.47;;;;;;;;;;5011205;28;20030;-66
2023/05/11 14:13:50;;;;;;;6.37;1.50;;;;;;;;;;5015189;28;20482;-64
2023/05/11 14:16:16;;;;;;;5.75;1.30;;;;;;;;;;5014645;28;20529;-65
2023/05/11 14:18:41;;;;;;;4.20;1.38;;;;;;;;;;5014193;28;20021;-66
2023/05/11 14:21:06;;;;;;;4.70;1.43;;;;;;;;;;5012097;28;20033;-65
2023/05/11 14:23:31;;;;;;;4.93;1.37;;;;;;;;;;5011960;28;20069;-66
2023/05/11 14:25:57;;;;;;;5.15;1.35;;;;;;;;;;5012218;28;20092;-66
2023/05/11 14:28:22;;;;;;;4.18;1.67;;;;;;;;;;5016646;28;20029;-64
2023/05/11 14:30:48;;;;;;;4.70;1.50;;;;;;;;;;5020978;28;20014;-66
2023/05/11 14:33:13;;;;;;;3.90;1.40;;;;;;;;;;5015617;28;20045;-66
2023/05/11 14:35:38;;;;;;;4.97;1.40;;;;;;;;;;5010321;28;20463;-66
2023/05/11 14:38:03;;;;;;;4.78;1.40;;;;;;;;;;5010315;28;20108;-66
2023/05/11 14:40:29;;;;;;;6.05;1.52;;;;;;;;;;5008625;28;20027;-66
2023/05/11 14:42:54;;;;;;;4.25;1.40;;;;;;;;;;5010930;28;20485;-66